Carmel Valley, CA (93924)

12:54 AM PST on February 14, 2016 (GMT -0800)
Chews Ridge | | Change Station
CLOSE
Current Station
Personal Weather Station
Location: Carmel Valley, CA
Elevation: 4790 ft
Nearby Weather Stations

Elev 4790 ft 36.31 °N, 121.57 °W | Updated 43 seconds ago

Clear
Clear
49.1 °F
Feels Like 45 °F
N
10.0
Wind Variable Wind from NE

Today
High -- | Low -- °F
--% Chance of Precip.
Yesterday
High -- | Low -- °F
Precip. -- in
Pressure 30.28 in
Visibility 6.0 miles
Clouds Scattered Clouds 800 ft
Windchill 45 °F
Dew Point 28 °F
Humidity 43%
Rainfall Not available.
Snow Depth Not available.
6:56 AM 5:46 PM
Waxing Crescent, 39% visible
SPECI KMRY 140840Z AUTO 16003KT 6SM BR SCT008 11/09 A3028 RMK AO2 T01110094 TSNO
Pressure 30.28 in
Visibility 6.0 miles
Clouds Scattered Clouds 800 ft
Windchill 45 °F
Dew Point 28 °F
Humidity 43%
Rainfall Not available.
Snow Depth Not available.
6:56 AM 5:46 PM
Waxing Crescent, 39% visible
SPECI KMRY 140840Z AUTO 16003KT 6SM BR SCT008 11/09 A3028 RMK AO2 T01110094 TSNO

10-Day Weather Forecast

Almanac

Astronomy

Feb. 14, 2016 Rise Set
Actual Time
Civil Twilight
Nautical Twilight
Astronomical Twilight
Moon
Length of Visible Light
Length of Day
Tomorrow will be .
, % of the Moon is Illuminated

Today's Extremes

State Highs State Lows

Community

WunderPhotos

Upload Photos

1,892,763 photos uploaded!

WunderBlog® & News

Nearby

Air Quality

  Air Quality AQ Index Pollutant
Not available.

Snow Depth

Station Depth Elevation

Earthquake Activity

City Distance Mag. Time & Date
Minimum magnitude displayed is 2.5.

Coastal Water Temperatures

Place Temperature

Stations

Nearby Weather Stations

Station Location Temp. Windchill Dew Point Humidity Wind Precip. Elev Updated Type
                   

Watches & Warnings

There are currently no watches in effect.